createdAt,value
2018-04-29T00:00:12.884Z,98119.58
2018-04-29T00:02:23.956Z,98122.95
2018-04-29T00:04:35.105Z,98104.59
2018-04-29T00:06:46.275Z,98080.83
2018-04-29T00:08:57.335Z,98042.15
2018-04-29T00:11:08.483Z,98016.09
2018-04-29T00:13:19.558Z,98007.76
2018-04-29T00:15:30.614Z,98015.10
2018-04-29T00:17:41.713Z,98012.52
2018-04-29T00:19:52.805Z,97993.98
2018-04-29T00:22:03.914Z,97966.75
2018-04-29T00:24:15.110Z,97954.34
2018-04-29T00:26:26.282Z,97947.84
2018-04-29T00:28:37.357Z,97929.27
2018-04-29T00:30:48.550Z,97915.00
2018-04-29T00:32:59.663Z,97891.60
2018-04-29T00:35:10.739Z,97886.79
2018-04-29T00:37:21.818Z,97888.55
2018-04-29T00:39:32.948Z,97878.41
2018-04-29T00:41:44.020Z,97869.02
2018-04-29T00:43:55.239Z,97864.06
2018-04-29T00:46:06.341Z,97856.34
2018-04-29T00:48:17.477Z,97853.34
2018-04-29T00:50:28.904Z,97843.56
2018-04-29T00:52:40.030Z,97840.40
2018-04-29T00:54:51.147Z,97833.45
2018-04-29T00:57:02.234Z,97832.22
2018-04-29T00:59:13.374Z,97820.44
2018-04-29T01:01:24.545Z,97819.95
2018-04-29T01:03:35.622Z,97811.05
2018-04-29T01:05:46.789Z,97815.95
2018-04-29T01:07:57.855Z,97814.98
2018-04-29T01:10:09.019Z,97824.30
2018-04-29T01:12:20.198Z,97828.31
2018-04-29T01:14:31.309Z,97826.90
2018-04-29T01:16:42.409Z,97826.58
2018-04-29T01:18:53.491Z,97834.35
2018-04-29T01:21:04.581Z,97829.30
2018-04-29T01:23:15.737Z,97838.92
2018-04-29T01:25:26.887Z,97828.16
2018-04-29T01:27:38.051Z,97822.28
2018-04-29T01:29:49.262Z,97814.94
2018-04-29T01:32:00.359Z,97808.83
2018-04-29T01:34:11.420Z,97801.04
2018-04-29T01:36:22.515Z,97789.69
2018-04-29T01:38:33.626Z,97785.14
2018-04-29T01:40:44.757Z,97777.20
2018-04-29T01:42:55.845Z,97771.57
2018-04-29T01:45:06.983Z,97762.33
2018-04-29T01:47:18.263Z,97757.61
2018-04-29T01:49:29.432Z,97750.16
2018-04-29T01:51:40.568Z,97750.39
2018-04-29T01:53:51.594Z,97740.60
2018-04-29T01:56:02.662Z,97726.97
2018-04-29T01:58:13.761Z,97719.64
2018-04-29T02:00:24.830Z,97710.14
2018-04-29T02:02:35.918Z,97709.42
2018-04-29T02:04:47.109Z,97699.78
2018-04-29T02:06:58.231Z,97699.30
2018-04-29T02:09:09.392Z,97695.38
2018-04-29T02:11:20.471Z,97704.27
2018-04-29T02:13:31.524Z,97710.69
2018-04-29T02:15:42.592Z,97716.05
2018-04-29T02:17:53.645Z,97724.64
2018-04-29T02:20:04.765Z,97724.98
2018-04-29T02:22:15.810Z,97728.01
2018-04-29T02:24:26.960Z,97736.08
2018-04-29T02:26:38.073Z,97738.02
2018-04-29T02:28:49.214Z,97734.64
2018-04-29T02:31:00.308Z,97733.47
2018-04-29T02:33:11.388Z,97732.59
2018-04-29T02:35:22.494Z,97728.30
2018-04-29T02:37:33.542Z,97740.95
2018-04-29T02:39:44.665Z,97745.20
2018-04-29T02:41:55.823Z,97745.84
2018-04-29T02:44:06.944Z,97743.41
2018-04-29T02:46:18.033Z,97741.61
2018-04-29T02:48:29.206Z,97736.64
2018-04-29T02:50:40.275Z,97732.30
2018-04-29T02:52:51.366Z,97726.48
2018-04-29T02:55:02.523Z,97720.55
2018-04-29T02:57:13.606Z,97722.81
2018-04-29T02:59:24.802Z,97716.77
2018-04-29T03:01:35.907Z,97717.00
2018-04-29T03:03:47.015Z,97713.26
2018-04-29T03:05:58.070Z,97709.44
2018-04-29T03:08:09.161Z,97713.56
2018-04-29T03:10:20.242Z,97711.81
2018-04-29T03:12:31.438Z,97714.16
2018-04-29T03:14:42.542Z,97713.66
2018-04-29T03:16:53.645Z,97711.31
2018-04-29T03:19:04.817Z,97705.03
2018-04-29T03:21:15.864Z,97699.94
2018-04-29T03:23:27.083Z,97692.83
2018-04-29T03:25:38.133Z,97689.71
2018-04-29T03:27:49.206Z,97702.13
2018-04-29T03:30:00.319Z,97697.94
2018-04-29T03:32:11.384Z,97696.70
2018-04-29T03:34:22.533Z,97701.61
2018-04-29T03:36:33.777Z,97704.47
2018-04-29T03:38:44.915Z,97705.03
2018-04-29T03:40:55.978Z,97708.06
2018-04-29T03:43:07.041Z,97719.23
2018-04-29T03:45:18.114Z,97715.87
2018-04-29T03:47:29.164Z,97714.84
2018-04-29T03:49:40.246Z,97711.57
2018-04-29T03:51:51.425Z,97707.75
2018-04-29T03:54:02.566Z,97708.40
2018-04-29T03:56:13.691Z,97704.97
2018-04-29T03:58:36.883Z,97706.34
2018-04-29T04:01:00.092Z,97705.99
2018-04-29T04:03:23.419Z,97705.75
2018-04-29T04:05:34.533Z,97705.63
2018-04-29T04:07:45.614Z,97705.16
2018-04-29T04:09:56.682Z,97704.25
2018-04-29T04:12:07.774Z,97703.03
2018-04-29T04:14:18.905Z,97695.68
2018-04-29T04:16:30.015Z,97701.37
2018-04-29T04:18:41.206Z,97701.78
2018-04-29T04:20:52.281Z,97696.44
2018-04-29T04:23:03.369Z,97700.52
2018-04-29T04:25:14.414Z,97701.95
2018-04-29T04:27:25.490Z,97694.70
2018-04-29T04:29:36.614Z,97702.38
2018-04-29T04:31:47.835Z,97704.38
2018-04-29T04:33:58.970Z,97707.50
2018-04-29T04:36:10.039Z,97707.95
2018-04-29T04:38:21.257Z,97700.86
2018-04-29T04:40:32.354Z,97697.13
2018-04-29T04:42:43.473Z,97690.48
2018-04-29T04:44:54.534Z,97686.64
2018-04-29T04:47:05.606Z,97682.33
2018-04-29T04:49:16.802Z,97676.53
2018-04-29T04:51:27.906Z,97684.10
2018-04-29T04:53:39.122Z,97681.94
2018-04-29T04:55:50.157Z,97691.90
2018-04-29T04:58:01.249Z,97688.44
2018-04-29T05:00:12.382Z,97689.74
2018-04-29T05:02:23.442Z,97689.52
2018-04-29T05:04:34.486Z,97684.70
2018-04-29T05:06:45.602Z,97680.94
2018-04-29T05:08:56.761Z,97675.31
2018-04-29T05:11:08.001Z,97681.30
2018-04-29T05:13:19.134Z,97683.15
2018-04-29T05:15:30.254Z,97678.30
2018-04-29T05:17:41.520Z,97673.28
2018-04-29T05:19:52.601Z,97676.00
2018-04-29T05:22:03.690Z,97682.80
2018-04-29T05:24:14.786Z,97683.29
2018-04-29T05:26:25.867Z,97683.52
2018-04-29T05:28:36.941Z,97688.04
2018-04-29T05:30:48.130Z,97694.44
2018-04-29T05:32:59.269Z,97697.00
2018-04-29T05:35:10.359Z,97684.63
2018-04-29T05:37:21.806Z,97687.47
2018-04-29T05:39:32.892Z,97694.64
2018-04-29T05:41:43.997Z,97694.44
2018-04-29T05:43:55.077Z,97685.96
2018-04-29T05:46:06.175Z,97687.85
2018-04-29T05:48:17.293Z,97683.97
2018-04-29T05:50:28.383Z,97675.28
2018-04-29T05:52:39.513Z,97673.94
2018-04-29T05:54:51.841Z,97659.23
2018-04-29T05:57:02.986Z,97656.48
2018-04-29T05:59:14.041Z,97653.45
2018-04-29T06:01:27.149Z,97653.75
2018-04-29T06:03:38.243Z,97645.75
2018-04-29T06:05:50.954Z,97650.92
2018-04-29T06:08:02.038Z,97643.90
2018-04-29T06:10:14.682Z,97648.16
2018-04-29T06:12:25.926Z,97654.06
2018-04-29T06:14:37.034Z,97649.95
2018-04-29T06:16:48.194Z,97652.18
2018-04-29T06:18:59.388Z,97651.88
2018-04-29T06:21:12.222Z,97654.80
2018-04-29T06:23:24.243Z,97650.80
2018-04-29T06:25:35.473Z,97647.63
2018-04-29T06:27:46.553Z,97649.05
2018-04-29T06:29:59.654Z,97649.69
2018-04-29T06:32:11.442Z,97649.34
2018-04-29T06:34:23.319Z,97646.57
2018-04-29T06:36:35.097Z,97645.03
2018-04-29T06:38:47.420Z,97648.48
2018-04-29T06:40:58.522Z,97650.64
2018-04-29T06:43:09.711Z,97648.13
2018-04-29T06:45:22.484Z,97641.66
2018-04-29T06:47:33.614Z,97643.02
2018-04-29T06:49:46.430Z,97643.11
2018-04-29T06:51:57.528Z,97642.83
2018-04-29T06:54:09.226Z,97638.30
2018-04-29T06:56:21.294Z,97637.94
2018-04-29T06:58:33.082Z,97640.89
2018-04-29T07:00:44.187Z,97638.42
2018-04-29T07:02:55.260Z,97634.47
2018-04-29T07:05:07.897Z,97636.27
2018-04-29T07:07:19.078Z,97636.92
2018-04-29T07:09:30.144Z,97629.17
2018-04-29T07:11:41.274Z,97628.72
2018-04-29T07:13:52.364Z,97631.48
2018-04-29T07:16:03.554Z,97627.94
2018-04-29T07:18:14.612Z,97634.62
2018-04-29T07:20:25.883Z,97630.09
2018-04-29T07:22:36.963Z,97623.98
2018-04-29T07:24:48.755Z,97621.67
2018-04-29T07:27:00.611Z,97621.33
2018-04-29T07:29:11.718Z,97616.57
2018-04-29T07:31:23.773Z,97616.01
2018-04-29T07:33:35.470Z,97618.52
2018-04-29T07:35:47.218Z,97615.59
2018-04-29T07:37:58.327Z,97613.58
2018-04-29T07:40:09.502Z,97613.61
2018-04-29T07:42:21.443Z,97613.05
2018-04-29T07:44:33.527Z,97610.30
2018-04-29T07:46:44.657Z,97612.19
2018-04-29T07:48:55.810Z,97611.27
2018-04-29T07:51:07.911Z,97608.60
2018-04-29T07:53:19.013Z,97607.73
2018-04-29T07:55:30.130Z,97600.55
2018-04-29T07:57:41.186Z,97603.02
2018-04-29T07:59:52.337Z,97607.52
2018-04-29T08:02:03.521Z,97608.55
2018-04-29T08:04:14.585Z,97610.84
2018-04-29T08:06:26.430Z,97603.92
2018-04-29T08:08:37.547Z,97604.91
2018-04-29T08:10:48.675Z,97608.48
2018-04-29T08:13:00.574Z,97606.28
2018-04-29T08:15:11.776Z,97608.55
2018-04-29T08:17:22.851Z,97595.54
2018-04-29T08:19:35.526Z,97597.30
2018-04-29T08:21:46.621Z,97593.00
2018-04-29T08:23:57.713Z,97594.49
2018-04-29T08:26:08.824Z,97583.63
2018-04-29T08:28:19.942Z,97560.28
2018-04-29T08:30:31.050Z,97568.23
2018-04-29T08:32:42.203Z,97562.70
2018-04-29T08:34:53.273Z,97560.40
2018-04-29T08:37:04.398Z,97562.13
2018-04-29T08:39:15.550Z,97558.39
2018-04-29T08:41:26.619Z,97549.29
2018-04-29T08:43:37.855Z,97546.27
2018-04-29T08:45:48.914Z,97546.91
2018-04-29T08:48:00.943Z,97550.89
2018-04-29T08:50:12.091Z,97541.81
2018-04-29T08:52:23.131Z,97535.62
2018-04-29T08:54:35.101Z,97535.32
2018-04-29T08:56:46.852Z,97541.02
2018-04-29T08:58:58.072Z,97539.08
2018-04-29T09:01:09.206Z,97535.08
2018-04-29T09:03:20.360Z,97526.59
2018-04-29T09:05:34.139Z,97528.97
2018-04-29T09:07:45.262Z,97527.62
2018-04-29T09:09:56.382Z,97527.09
2018-04-29T09:12:07.458Z,97530.42
2018-04-29T09:14:18.565Z,97535.62
2018-04-29T09:16:29.645Z,97536.88
2018-04-29T09:18:40.741Z,97535.81
2018-04-29T09:20:51.861Z,97537.25
2018-04-29T09:23:03.044Z,97536.38
2018-04-29T09:25:14.195Z,97530.38
2018-04-29T09:27:25.262Z,97529.34
2018-04-29T09:29:36.465Z,97523.29
2018-04-29T09:31:47.534Z,97523.92
2018-04-29T09:33:58.651Z,97527.04
2018-04-29T09:36:09.754Z,97516.84
2018-04-29T09:38:20.889Z,97514.92
2018-04-29T09:40:32.055Z,97511.94
2018-04-29T09:42:43.137Z,97506.10
2018-04-29T09:44:54.321Z,97514.79
2018-04-29T09:47:05.411Z,97506.51
2018-04-29T09:49:16.623Z,97494.22
2018-04-29T09:51:27.711Z,97498.07
2018-04-29T09:53:38.769Z,97496.70
2018-04-29T09:55:49.912Z,97490.80
2018-04-29T09:58:01.077Z,97489.56
2018-04-29T10:00:12.143Z,97489.58
2018-04-29T10:02:23.209Z,97486.20
2018-04-29T10:04:34.461Z,97490.30
2018-04-29T10:06:45.562Z,97491.01
2018-04-29T10:08:56.713Z,97489.05
2018-04-29T10:11:07.863Z,97486.72
2018-04-29T10:13:18.955Z,97484.58
2018-04-29T10:15:30.114Z,97478.31
2018-04-29T10:17:41.198Z,97478.02
2018-04-29T10:19:52.444Z,97473.19
2018-04-29T10:22:03.510Z,97461.63
2018-04-29T10:24:14.690Z,97462.16
2018-04-29T10:26:25.812Z,97459.57
2018-04-29T10:28:36.871Z,97451.12
2018-04-29T10:30:47.979Z,97452.97
2018-04-29T10:32:59.080Z,97452.38
2018-04-29T10:35:10.195Z,97446.34
2018-04-29T10:37:21.310Z,97448.03
2018-04-29T10:39:32.438Z,97444.17
2018-04-29T10:41:43.574Z,97433.76
2018-04-29T10:43:54.733Z,97432.02
2018-04-29T10:46:05.869Z,97431.63
2018-04-29T10:48:16.986Z,97419.45
2018-04-29T10:50:28.182Z,97420.14
2018-04-29T10:52:39.302Z,97414.80
2018-04-29T10:54:50.494Z,97413.38
2018-04-29T10:57:01.619Z,97409.34
2018-04-29T10:59:12.865Z,97405.52
2018-04-29T11:01:23.952Z,97405.58
2018-04-29T11:03:35.098Z,97400.01
2018-04-29T11:05:46.281Z,97407.41
2018-04-29T11:07:57.409Z,97402.85
2018-04-29T11:10:08.490Z,97394.54
2018-04-29T11:12:19.591Z,97392.25
2018-04-29T11:14:30.740Z,97394.73
2018-04-29T11:16:41.807Z,97393.35
2018-04-29T11:18:52.986Z,97380.49
2018-04-29T11:21:04.079Z,97385.42
2018-04-29T11:23:15.256Z,97377.02
2018-04-29T11:25:26.557Z,97372.27
2018-04-29T11:27:37.630Z,97375.72
2018-04-29T11:29:48.834Z,97372.73
2018-04-29T11:31:59.941Z,97364.16
2018-04-29T11:34:11.070Z,97355.69
2018-04-29T11:36:22.144Z,97357.76
2018-04-29T11:38:33.287Z,97355.65
2018-04-29T11:40:44.494Z,97343.22
2018-04-29T11:42:55.525Z,97345.39
2018-04-29T11:45:06.672Z,97336.62
2018-04-29T11:47:17.754Z,97330.98
2018-04-29T11:49:28.861Z,97331.92
2018-04-29T11:51:40.011Z,97337.12
2018-04-29T11:53:51.157Z,97332.27
2018-04-29T11:56:03.275Z,97325.84
2018-04-29T11:58:14.362Z,97325.96
2018-04-29T12:00:26.478Z,97328.80
2018-04-29T12:02:37.627Z,97320.59
2018-04-29T12:04:48.728Z,97325.39
2018-04-29T12:06:59.838Z,97317.05
2018-04-29T12:09:10.995Z,97316.88
2018-04-29T12:11:22.166Z,97313.08
2018-04-29T12:13:33.257Z,97307.84
2018-04-29T12:15:44.362Z,97310.87
2018-04-29T12:17:55.482Z,97301.94
2018-04-29T12:20:06.627Z,97295.46
2018-04-29T12:22:17.755Z,97292.23
2018-04-29T12:24:28.942Z,97296.00
2018-04-29T12:26:39.966Z,97291.58
2018-04-29T12:28:51.209Z,97284.09
2018-04-29T12:31:02.274Z,97279.36
2018-04-29T12:33:13.426Z,97282.00
2018-04-29T12:35:24.542Z,97275.48
2018-04-29T12:37:35.605Z,97261.21
2018-04-29T12:39:46.707Z,97261.98
2018-04-29T12:41:57.819Z,97261.53
2018-04-29T12:44:09.036Z,97257.48
2018-04-29T12:46:20.157Z,97245.19
2018-04-29T12:48:31.250Z,97252.67
2018-04-29T12:50:42.406Z,97252.03
2018-04-29T12:52:53.477Z,97244.47
2018-04-29T12:55:04.590Z,97235.73
2018-04-29T12:57:15.726Z,97236.88
2018-04-29T12:59:26.847Z,97228.63
2018-04-29T13:01:37.956Z,97223.37
2018-04-29T13:03:49.325Z,97219.45
2018-04-29T13:06:00.544Z,97209.06
2018-04-29T13:08:11.742Z,97206.59
2018-04-29T13:10:23.034Z,97196.48
2018-04-29T13:12:34.159Z,97189.36
2018-04-29T13:14:45.350Z,97187.29
2018-04-29T13:16:56.609Z,97184.94
2018-04-29T13:19:07.696Z,97176.47
2018-04-29T13:21:18.876Z,97169.63
2018-04-29T13:23:29.993Z,97164.24
2018-04-29T13:25:41.347Z,97167.48
2018-04-29T13:27:52.472Z,97155.03
2018-04-29T13:30:03.546Z,97158.10
2018-04-29T13:32:14.674Z,97145.06
2018-04-29T13:34:25.889Z,97136.80
2018-04-29T13:36:36.977Z,97139.98
2018-04-29T13:38:48.151Z,97132.39
2018-04-29T13:40:59.315Z,97138.03
2018-04-29T13:43:10.430Z,97131.98
2018-04-29T13:45:21.561Z,97131.06
2018-04-29T13:47:32.646Z,97129.45
2018-04-29T13:49:43.754Z,97127.77
2018-04-29T13:51:54.949Z,97115.83
2018-04-29T13:54:06.108Z,97107.59
2018-04-29T13:56:17.212Z,97104.45
2018-04-29T13:58:28.295Z,97105.87
2018-04-29T14:00:39.477Z,97099.00
2018-04-29T14:02:50.559Z,97100.23
2018-04-29T14:05:01.662Z,97088.27
2018-04-29T14:07:12.821Z,97083.75
2018-04-29T14:09:23.830Z,97082.85
2018-04-29T14:11:34.981Z,97071.98
2018-04-29T14:13:46.070Z,97069.20
2018-04-29T14:15:57.189Z,97062.34
2018-04-29T14:18:08.274Z,97055.79
2018-04-29T14:20:19.498Z,97050.58
2018-04-29T14:22:30.624Z,97044.10
2018-04-29T14:24:41.689Z,97044.98
2018-04-29T14:26:52.834Z,97041.90
2018-04-29T14:29:03.888Z,97045.85
2018-04-29T14:31:15.019Z,97038.25
2018-04-29T14:33:26.122Z,97032.20
2018-04-29T14:35:37.286Z,97027.39
2018-04-29T14:37:48.387Z,97029.53
2018-04-29T14:39:59.506Z,97026.94
2018-04-29T14:42:10.597Z,97027.13
2018-04-29T14:44:21.722Z,97017.31
2018-04-29T14:46:32.807Z,97013.55
2018-04-29T14:48:43.982Z,97013.20
2018-04-29T14:50:55.230Z,97007.27
2018-04-29T14:53:06.318Z,97013.48
2018-04-29T14:55:17.494Z,97006.81
2018-04-29T14:57:28.562Z,97005.81
2018-04-29T14:59:39.650Z,96999.22
2018-04-29T15:01:50.734Z,96995.05
2018-04-29T15:04:01.840Z,97001.84
2018-04-29T15:06:13.023Z,96993.55
2018-04-29T15:08:25.873Z,96993.38
2018-04-29T15:10:37.087Z,96984.14
2018-04-29T15:12:49.967Z,96982.86
2018-04-29T15:15:01.137Z,96979.62
2018-04-29T15:17:12.222Z,96974.57
2018-04-29T15:19:23.426Z,96969.67
2018-04-29T15:21:34.466Z,96963.80
2018-04-29T15:23:45.560Z,96959.39
2018-04-29T15:25:56.678Z,96958.13
2018-04-29T15:28:07.790Z,96960.65
2018-04-29T15:30:18.921Z,96957.59
2018-04-29T15:32:30.086Z,96953.67
2018-04-29T15:34:41.173Z,96939.42
2018-04-29T15:36:52.304Z,96949.51
2018-04-29T15:39:03.439Z,96939.67
2018-04-29T15:41:15.166Z,96932.09
2018-04-29T15:43:26.254Z,96927.62
2018-04-29T15:45:37.420Z,96922.69
2018-04-29T15:47:48.540Z,96909.94
2018-04-29T15:49:59.652Z,96911.97
2018-04-29T15:52:10.751Z,96913.70
2018-04-29T15:54:21.982Z,96907.44
2018-04-29T15:56:33.314Z,96907.61
2018-04-29T15:58:44.414Z,96896.83
2018-04-29T16:00:55.625Z,96892.55
2018-04-29T16:03:06.895Z,96880.04
2018-04-29T16:05:18.100Z,96877.23
2018-04-29T16:07:29.209Z,96870.50
2018-04-29T16:09:40.324Z,96864.14
2018-04-29T16:11:51.571Z,96863.44
2018-04-29T16:14:02.580Z,96857.01
2018-04-29T16:16:13.687Z,96851.45
2018-04-29T16:18:24.785Z,96851.16
2018-04-29T16:20:35.979Z,96845.28
2018-04-29T16:22:47.117Z,96840.84
2018-04-29T16:24:58.323Z,96845.98
2018-04-29T16:27:09.422Z,96842.80
2018-04-29T16:29:20.510Z,96841.34
2018-04-29T16:31:31.651Z,96836.02
2018-04-29T16:33:42.734Z,96825.17
2018-04-29T16:35:53.899Z,96826.16
2018-04-29T16:38:05.039Z,96830.52
2018-04-29T16:40:16.125Z,96813.75
2018-04-29T16:42:27.354Z,96812.66
2018-04-29T16:44:38.458Z,96802.70
2018-04-29T16:46:49.756Z,96798.53
2018-04-29T16:49:00.861Z,96799.18
2018-04-29T16:51:12.115Z,96800.03
2018-04-29T16:53:23.196Z,96796.55
2018-04-29T16:55:34.410Z,96795.95
2018-04-29T16:57:45.461Z,96796.77
2018-04-29T16:59:56.583Z,96796.53
2018-04-29T17:02:07.714Z,96792.66
2018-04-29T17:04:18.799Z,96790.14
2018-04-29T17:06:30.069Z,96791.33
2018-04-29T17:08:41.247Z,96783.46
2018-04-29T17:10:52.414Z,96782.98
2018-04-29T17:13:03.572Z,96777.43
2018-04-29T17:15:14.708Z,96780.27
2018-04-29T17:17:25.986Z,96777.89
2018-04-29T17:19:37.100Z,96777.02
2018-04-29T17:21:48.235Z,96770.28
2018-04-29T17:23:59.323Z,96775.19
2018-04-29T17:26:10.548Z,96768.70
2018-04-29T17:28:21.682Z,96771.31
2018-04-29T17:30:32.767Z,96771.48
2018-04-29T17:32:44.006Z,96767.05
2018-04-29T17:34:55.097Z,96767.87
2018-04-29T17:37:06.198Z,96767.44
2018-04-29T17:39:17.303Z,96767.00
2018-04-29T17:41:28.436Z,96763.66
2018-04-29T17:43:39.537Z,96761.81
2018-04-29T17:45:50.646Z,96755.20
2018-04-29T17:48:01.805Z,96755.58
2018-04-29T17:50:12.881Z,96750.01
2018-04-29T17:52:24.038Z,96743.64
2018-04-29T17:54:35.135Z,96741.98
2018-04-29T17:56:46.339Z,96740.34
2018-04-29T17:58:57.434Z,96734.62
2018-04-29T18:01:08.554Z,96727.08
2018-04-29T18:03:19.684Z,96728.37
2018-04-29T18:05:30.808Z,96723.50
2018-04-29T18:07:41.942Z,96725.80
2018-04-29T18:09:53.054Z,96725.84
2018-04-29T18:12:04.199Z,96729.63
2018-04-29T18:14:15.309Z,96720.15
2018-04-29T18:16:26.426Z,96711.93
2018-04-29T18:18:37.534Z,96708.79
2018-04-29T18:20:48.627Z,96707.63
2018-04-29T18:22:59.726Z,96702.98
2018-04-29T18:25:10.842Z,96700.85
2018-04-29T18:27:21.942Z,96702.61
2018-04-29T18:29:33.069Z,96700.95
2018-04-29T18:31:44.208Z,96706.62
2018-04-29T18:33:55.304Z,96701.81
2018-04-29T18:36:06.414Z,96705.92
2018-04-29T18:38:17.483Z,96694.06
2018-04-29T18:40:28.629Z,96697.27
2018-04-29T18:42:39.788Z,96691.70
2018-04-29T18:44:50.887Z,96690.26
2018-04-29T18:47:02.050Z,96684.00
2018-04-29T18:49:13.151Z,96688.67
2018-04-29T18:51:24.450Z,96684.77
2018-04-29T18:53:35.488Z,96687.30
2018-04-29T18:55:46.582Z,96686.30
2018-04-29T18:57:57.718Z,96690.38
2018-04-29T19:00:08.831Z,96690.31
2018-04-29T19:02:19.976Z,96686.37
2018-04-29T19:04:31.071Z,96688.55
2018-04-29T19:06:42.353Z,96690.91
2018-04-29T19:08:53.464Z,96687.06
2018-04-29T19:11:04.679Z,96686.97
2018-04-29T19:13:15.825Z,96684.85
2018-04-29T19:15:26.979Z,96680.98
2018-04-29T19:17:38.170Z,96680.59
2018-04-29T19:19:49.285Z,96672.22
2018-04-29T19:22:00.407Z,96667.36
2018-04-29T19:24:11.613Z,96659.81
2018-04-29T19:26:25.623Z,96666.40
2018-04-29T19:28:36.786Z,96662.19
2018-04-29T19:30:47.892Z,96660.75
2018-04-29T19:32:58.987Z,96658.23
2018-04-29T19:35:10.176Z,96657.33
2018-04-29T19:37:21.270Z,96653.58
2018-04-29T19:39:32.451Z,96653.73
2018-04-29T19:41:43.559Z,96652.10
2018-04-29T19:43:54.774Z,96643.23
2018-04-29T19:46:05.899Z,96641.40
2018-04-29T19:48:16.984Z,96640.00
2018-04-29T19:50:28.179Z,96636.84
2018-04-29T19:52:39.274Z,96635.72
2018-04-29T19:54:50.411Z,96631.45
2018-04-29T19:57:01.517Z,96627.62
2018-04-29T19:59:12.654Z,96624.36
2018-04-29T20:01:23.795Z,96623.69
2018-04-29T20:03:35.131Z,96620.24
2018-04-29T20:05:46.363Z,96615.27
2018-04-29T20:07:57.533Z,96608.87
2018-04-29T20:10:11.182Z,96603.38
2018-04-29T20:12:22.295Z,96600.14
2018-04-29T20:14:33.369Z,96601.15
2018-04-29T20:16:44.586Z,96588.73
2018-04-29T20:18:55.718Z,96589.61
2018-04-29T20:21:06.871Z,96585.03
2018-04-29T20:23:17.941Z,96584.42
2018-04-29T20:25:29.137Z,96578.14
2018-04-29T20:27:40.231Z,96579.13
2018-04-29T20:29:51.349Z,96572.44
2018-04-29T20:32:02.539Z,96572.84
2018-04-29T20:34:13.679Z,96575.48
2018-04-29T20:36:24.964Z,96567.60
2018-04-29T20:38:36.080Z,96567.02
2018-04-29T20:40:47.175Z,96559.48
2018-04-29T20:42:58.299Z,96557.86
2018-04-29T20:45:09.430Z,96550.38
2018-04-29T20:47:20.747Z,96558.04
2018-04-29T20:49:31.870Z,96549.41
2018-04-29T20:51:43.025Z,96550.88
2018-04-29T20:53:54.210Z,96554.87
2018-04-29T20:56:05.427Z,96551.07
2018-04-29T20:58:16.574Z,96555.69
2018-04-29T21:00:27.667Z,96556.24
2018-04-29T21:02:38.871Z,96558.78
2018-04-29T21:04:49.998Z,96556.50
2018-04-29T21:07:01.187Z,96550.69
2018-04-29T21:09:12.310Z,96552.53
2018-04-29T21:11:23.423Z,96555.70
2018-04-29T21:13:34.624Z,96544.69
2018-04-29T21:15:45.649Z,96541.52
2018-04-29T21:17:56.770Z,96538.36
2018-04-29T21:20:07.883Z,96541.08
2018-04-29T21:22:19.042Z,96541.08
2018-04-29T21:24:30.153Z,96545.41
2018-04-29T21:26:41.241Z,96544.59
2018-04-29T21:28:52.323Z,96544.70
2018-04-29T21:31:03.453Z,96545.03
2018-04-29T21:33:14.529Z,96545.86
2018-04-29T21:35:25.606Z,96555.06
2018-04-29T21:37:36.773Z,96551.10
2018-04-29T21:39:47.936Z,96553.53
2018-04-29T21:41:59.238Z,96547.13
2018-04-29T21:44:10.312Z,96553.77
2018-04-29T21:46:21.397Z,96560.12
2018-04-29T21:48:32.509Z,96554.89
2018-04-29T21:50:43.605Z,96564.69
2018-04-29T21:52:54.817Z,96568.48
2018-04-29T21:55:05.910Z,96576.42
2018-04-29T21:57:17.130Z,96566.38
2018-04-29T21:59:28.183Z,96563.22
2018-04-29T22:01:39.333Z,96559.98
2018-04-29T22:03:50.384Z,96556.72
2018-04-29T22:06:01.526Z,96561.95
2018-04-29T22:08:12.651Z,96570.28
2018-04-29T22:10:23.689Z,96568.05
2018-04-29T22:12:34.947Z,96575.36
2018-04-29T22:14:46.090Z,96579.14
2018-04-29T22:16:57.407Z,96582.30
2018-04-29T22:19:08.537Z,96579.87
2018-04-29T22:21:19.895Z,96578.28
2018-04-29T22:23:31.079Z,96576.05
2018-04-29T22:25:42.158Z,96591.19
2018-04-29T22:27:53.357Z,96583.27
2018-04-29T22:30:04.423Z,96583.64
2018-04-29T22:32:15.541Z,96582.41
2018-04-29T22:34:26.606Z,96581.77
2018-04-29T22:36:37.710Z,96588.69
2018-04-29T22:38:48.874Z,96582.77
2018-04-29T22:40:59.953Z,96593.63
2018-04-29T22:43:11.102Z,96591.94
2018-04-29T22:45:22.197Z,96589.34
2018-04-29T22:47:33.309Z,96588.99
2018-04-29T22:49:44.437Z,96585.02
2018-04-29T22:51:55.520Z,96579.44
2018-04-29T22:54:06.754Z,96586.58
2018-04-29T22:56:17.801Z,96587.81
2018-04-29T22:58:28.918Z,96593.02
2018-04-29T23:00:40.015Z,96589.47
2018-04-29T23:02:51.159Z,96593.77
2018-04-29T23:05:02.288Z,96596.22
2018-04-29T23:07:13.365Z,96601.36
2018-04-29T23:09:24.459Z,96599.61
2018-04-29T23:11:35.572Z,96598.66
2018-04-29T23:13:46.692Z,96607.17
2018-04-29T23:15:57.783Z,96607.55
2018-04-29T23:18:08.905Z,96620.11
2018-04-29T23:20:20.035Z,96624.60
2018-04-29T23:22:31.146Z,96630.07
2018-04-29T23:24:42.281Z,96625.44
2018-04-29T23:26:53.374Z,96636.19
2018-04-29T23:29:04.479Z,96636.97
2018-04-29T23:31:15.568Z,96649.33
2018-04-29T23:33:26.637Z,96658.18
2018-04-29T23:35:37.889Z,96660.88
2018-04-29T23:37:48.967Z,96675.56
2018-04-29T23:40:00.114Z,96699.92
2018-04-29T23:42:11.266Z,96716.50
2018-04-29T23:44:22.354Z,96717.69
2018-04-29T23:46:33.485Z,96737.55
2018-04-29T23:48:44.614Z,96737.85
2018-04-29T23:50:55.720Z,96744.27
2018-04-29T23:53:06.798Z,96748.27
2018-04-29T23:55:17.900Z,96745.55
2018-04-29T23:57:29.102Z,96753.97
2018-04-29T23:59:40.202Z,96762.41
